createdAt,value
2022-12-06T00:01:17.324Z,100403.53
2022-12-06T00:04:19.617Z,100399.00
2022-12-06T00:07:21.978Z,100409.63
2022-12-06T00:10:24.320Z,100401.44
2022-12-06T00:13:26.703Z,100399.75
2022-12-06T00:16:29.682Z,100394.47
2022-12-06T00:19:32.123Z,100394.44
2022-12-06T00:22:34.402Z,100396.31
2022-12-06T00:25:36.757Z,100400.16
2022-12-06T00:28:39.658Z,100392.22
2022-12-06T00:31:42.147Z,100389.97
2022-12-06T00:34:44.531Z,100394.44
2022-12-06T00:37:46.788Z,100386.06
2022-12-06T00:40:49.097Z,100368.69
2022-12-06T00:43:52.725Z,100365.66
2022-12-06T00:46:55.003Z,100363.97
2022-12-06T00:49:57.686Z,100342.94
2022-12-06T00:53:00.341Z,100343.78
2022-12-06T00:56:02.658Z,100347.81
2022-12-06T00:59:05.886Z,100348.00
2022-12-06T01:02:09.617Z,100338.75
2022-12-06T01:05:11.890Z,100339.25
2022-12-06T01:08:15.218Z,100337.44
2022-12-06T01:11:18.364Z,100338.88
2022-12-06T01:14:20.682Z,100325.41
2022-12-06T01:17:23.006Z,100317.19
2022-12-06T01:20:25.279Z,100310.88
2022-12-06T01:23:27.641Z,100291.09
2022-12-06T01:26:32.620Z,100303.72
2022-12-06T01:29:34.970Z,100308.66
2022-12-06T01:32:37.219Z,100305.94
2022-12-06T01:35:41.453Z,100305.38
2022-12-06T01:38:43.767Z,100292.53
2022-12-06T01:41:46.092Z,100287.75
2022-12-06T01:44:53.653Z,100283.28
2022-12-06T01:47:55.994Z,100258.97
2022-12-06T01:50:58.836Z,100243.56
2022-12-06T01:54:02.184Z,100234.00
2022-12-06T01:57:05.423Z,100215.63
2022-12-06T02:00:08.670Z,100217.38
2022-12-06T02:03:19.629Z,100232.66
2022-12-06T02:06:22.483Z,100237.56
2022-12-06T02:09:26.431Z,100236.88
2022-12-06T02:12:28.832Z,100233.06
2022-12-06T02:15:59.527Z,100272.25
2022-12-06T02:19:30.092Z,100334.63
2022-12-06T02:23:09.124Z,100314.63
2022-12-06T02:26:14.347Z,100299.81
2022-12-06T02:29:32.527Z,100310.41
2022-12-06T02:32:57.265Z,100295.59
2022-12-06T02:36:22.917Z,100295.56
2022-12-06T02:39:29.673Z,100296.81
2022-12-06T02:43:04.257Z,100297.38
2022-12-06T02:46:08.021Z,100315.53
2022-12-06T02:49:11.966Z,100318.78
2022-12-06T02:52:14.503Z,100300.72
2022-12-06T02:55:17.821Z,100313.59
2022-12-06T02:58:20.108Z,100300.94
2022-12-06T03:01:25.876Z,100294.41
2022-12-06T03:04:55.722Z,100295.88
2022-12-06T03:07:59.175Z,100281.13
2022-12-06T03:11:02.958Z,100258.72
2022-12-06T03:14:10.976Z,100247.34
2022-12-06T03:17:24.340Z,100246.88
2022-12-06T03:21:00.254Z,100265.47
2022-12-06T03:24:05.929Z,100263.41
2022-12-06T03:27:11.622Z,100241.16
2022-12-06T03:30:14.827Z,100204.91
2022-12-06T03:33:18.098Z,100184.75
2022-12-06T03:36:21.393Z,100187.31
2022-12-06T03:39:36.048Z,100203.81
2022-12-06T03:42:38.737Z,100221.97
2022-12-06T03:45:47.186Z,100202.94
2022-12-06T03:49:04.767Z,100208.72
2022-12-06T03:52:07.176Z,100190.78
2022-12-06T03:55:10.076Z,100214.41
2022-12-06T03:58:12.874Z,100185.41
2022-12-06T04:01:15.286Z,100184.03
2022-12-06T04:04:17.669Z,100177.34
2022-12-06T04:07:21.698Z,100175.75
2022-12-06T04:10:24.448Z,100181.41
2022-12-06T04:13:26.891Z,100177.72
2022-12-06T04:16:47.667Z,100174.41
2022-12-06T04:19:52.241Z,100174.31
2022-12-06T04:23:04.473Z,100172.28
2022-12-06T04:26:09.988Z,100172.75
2022-12-06T04:29:30.629Z,100177.75
2022-12-06T04:32:51.394Z,100181.91
2022-12-06T04:36:15.170Z,100201.38
2022-12-06T04:39:20.652Z,100187.16
2022-12-06T04:42:42.244Z,100248.72
2022-12-06T04:45:44.551Z,100242.31
2022-12-06T04:48:47.019Z,100229.78
2022-12-06T04:51:49.334Z,100223.34
2022-12-06T04:54:51.640Z,100241.03
2022-12-06T04:57:53.990Z,100230.53
2022-12-06T05:00:56.334Z,100225.63
2022-12-06T05:03:58.691Z,100234.97
2022-12-06T05:07:01.147Z,100234.56
2022-12-06T05:10:03.985Z,100232.69
2022-12-06T05:13:06.247Z,100219.94
2022-12-06T05:16:09.290Z,100205.09
2022-12-06T05:19:13.477Z,100204.25
2022-12-06T05:22:15.732Z,100212.03
2022-12-06T05:25:17.994Z,100205.94
2022-12-06T05:28:20.302Z,100197.72
2022-12-06T05:31:23.288Z,100213.09
2022-12-06T05:34:25.572Z,100205.34
2022-12-06T05:37:27.873Z,100226.34
2022-12-06T05:40:30.109Z,100226.34
2022-12-06T05:43:32.870Z,100226.97
2022-12-06T05:46:35.254Z,100213.88
2022-12-06T05:49:37.589Z,100217.94
2022-12-06T05:52:41.237Z,100235.72
2022-12-06T05:55:44.126Z,100215.34
2022-12-06T05:58:46.475Z,100218.66
2022-12-06T06:01:48.780Z,100205.16
2022-12-06T06:04:51.121Z,100202.31
2022-12-06T06:07:53.436Z,100202.91
2022-12-06T06:10:56.051Z,100205.56
2022-12-06T06:13:58.262Z,100201.50
2022-12-06T06:17:00.617Z,100187.84
2022-12-06T06:20:06.326Z,100175.81
2022-12-06T06:23:08.634Z,100172.97
2022-12-06T06:26:12.055Z,100180.13
2022-12-06T06:29:15.795Z,100177.25
2022-12-06T06:32:18.556Z,100186.44
2022-12-06T06:35:20.961Z,100169.28
2022-12-06T06:38:23.224Z,100172.16
2022-12-06T06:41:25.655Z,100162.38
2022-12-06T06:44:27.902Z,100182.75
2022-12-06T06:47:30.172Z,100163.16
2022-12-06T06:50:34.669Z,100167.44
2022-12-06T06:53:37.619Z,100165.00
2022-12-06T06:56:39.931Z,100171.38
2022-12-06T06:59:43.239Z,100164.03
2022-12-06T07:02:45.695Z,100157.06
2022-12-06T07:05:58.979Z,100163.16
2022-12-06T07:09:01.196Z,100163.38
2022-12-06T07:12:04.383Z,100163.97
2022-12-06T07:15:07.258Z,100154.97
2022-12-06T07:18:09.717Z,100161.94
2022-12-06T07:21:14.236Z,100162.78
2022-12-06T07:24:16.663Z,100157.88
2022-12-06T07:27:19.020Z,100161.72
2022-12-06T07:30:27.051Z,100152.56
2022-12-06T07:33:30.264Z,100163.56
2022-12-06T07:36:32.770Z,100184.16
2022-12-06T07:39:35.044Z,100177.63
2022-12-06T07:42:56.064Z,100167.00
2022-12-06T07:45:58.402Z,100172.56
2022-12-06T07:49:00.774Z,100168.56
2022-12-06T07:52:03.027Z,100163.25
2022-12-06T07:55:06.566Z,100155.78
2022-12-06T07:58:08.772Z,100151.94
2022-12-06T08:01:11.373Z,100152.38
2022-12-06T08:04:13.726Z,100154.00
2022-12-06T08:07:16.076Z,100159.09
2022-12-06T08:10:18.537Z,100167.47
2022-12-06T08:13:20.896Z,100167.28
2022-12-06T08:16:23.225Z,100181.38
2022-12-06T08:19:25.602Z,100178.28
2022-12-06T08:22:28.331Z,100176.50
2022-12-06T08:25:30.596Z,100168.50
2022-12-06T08:28:34.022Z,100184.03
2022-12-06T08:31:36.487Z,100181.59
2022-12-06T08:34:39.008Z,100189.50
2022-12-06T08:37:41.333Z,100190.94
2022-12-06T08:40:44.192Z,100203.56
2022-12-06T08:43:46.462Z,100194.81
2022-12-06T08:46:49.173Z,100188.06
2022-12-06T08:49:51.556Z,100182.53
2022-12-06T08:52:54.237Z,100194.41
2022-12-06T08:56:02.378Z,100203.16
2022-12-06T08:59:05.346Z,100187.66
2022-12-06T09:02:07.637Z,100183.81
2022-12-06T09:05:10.404Z,100206.66
2022-12-06T09:08:12.848Z,100188.50
2022-12-06T09:11:15.978Z,100182.81
2022-12-06T09:14:21.952Z,100174.84
2022-12-06T09:17:24.779Z,100190.34
2022-12-06T09:20:27.035Z,100180.78
2022-12-06T09:23:29.290Z,100185.66
2022-12-06T09:26:31.849Z,100187.69
2022-12-06T09:29:40.377Z,100179.53
2022-12-06T09:32:42.916Z,100174.25
2022-12-06T09:35:45.229Z,100196.44
2022-12-06T09:38:52.448Z,100183.41
2022-12-06T09:42:13.194Z,100189.69
2022-12-06T09:45:33.570Z,100182.94
2022-12-06T09:48:55.270Z,100190.84
2022-12-06T09:52:26.433Z,100194.13
2022-12-06T09:55:47.718Z,100179.81
2022-12-06T09:59:01.947Z,100171.94
2022-12-06T10:02:47.331Z,100180.72
2022-12-06T10:06:02.828Z,100186.88
2022-12-06T10:09:34.616Z,100179.72
2022-12-06T10:12:55.141Z,100178.50
2022-12-06T10:16:09.434Z,100177.84
2022-12-06T10:19:27.153Z,100159.00
2022-12-06T10:22:35.382Z,100164.63
2022-12-06T10:25:44.020Z,100161.31
2022-12-06T10:29:13.007Z,100152.09
2022-12-06T10:32:38.536Z,100149.81
2022-12-06T10:35:41.079Z,100148.94
2022-12-06T10:38:50.906Z,100129.94
2022-12-06T10:42:01.496Z,100105.44
2022-12-06T10:45:37.911Z,100114.41
2022-12-06T10:48:58.605Z,100126.59
2022-12-06T10:52:19.594Z,100125.50
2022-12-06T10:55:25.054Z,100109.50
2022-12-06T10:58:45.932Z,100117.94
2022-12-06T11:01:49.239Z,100116.97
2022-12-06T11:04:53.521Z,100118.16
2022-12-06T11:08:12.551Z,100112.88
2022-12-06T11:11:24.001Z,100101.00
2022-12-06T11:14:35.194Z,100120.13
2022-12-06T11:17:41.030Z,100104.38
2022-12-06T11:20:51.455Z,100110.78
2022-12-06T11:24:03.777Z,100095.47
2022-12-06T11:27:39.378Z,100092.63
2022-12-06T11:30:41.662Z,100096.41
2022-12-06T11:33:44.023Z,100106.41
2022-12-06T11:36:47.350Z,100092.44
2022-12-06T11:40:20.625Z,100094.50
2022-12-06T11:43:26.979Z,100090.66
2022-12-06T11:46:29.551Z,100082.56
2022-12-06T11:49:34.007Z,100081.94
2022-12-06T11:52:39.984Z,100088.34
2022-12-06T11:55:48.371Z,100077.63
2022-12-06T11:58:56.532Z,100073.88
2022-12-06T12:02:01.164Z,100078.34
2022-12-06T12:05:20.871Z,100076.63
2022-12-06T12:08:26.161Z,100082.00
2022-12-06T12:11:33.229Z,100082.72
2022-12-06T12:14:40.195Z,100090.81
2022-12-06T12:17:46.459Z,100093.13
2022-12-06T12:20:49.257Z,100096.28
2022-12-06T12:23:51.507Z,100091.84
2022-12-06T12:26:53.782Z,100107.38
2022-12-06T12:30:28.658Z,100113.91
2022-12-06T12:33:30.864Z,100102.38
2022-12-06T12:36:33.125Z,100104.25
2022-12-06T12:39:47.247Z,100101.47
2022-12-06T12:42:57.861Z,100093.03
2022-12-06T12:46:12.348Z,100114.09
2022-12-06T12:49:23.715Z,100110.84
2022-12-06T12:52:38.234Z,100095.28
2022-12-06T12:55:41.952Z,100110.06
2022-12-06T12:58:45.343Z,100112.66
2022-12-06T13:02:06.518Z,100115.63
2022-12-06T13:05:33.324Z,100102.84
2022-12-06T13:08:38.153Z,100103.97
2022-12-06T13:11:46.126Z,100104.88
2022-12-06T13:15:03.382Z,100093.66
2022-12-06T13:18:35.766Z,100099.78
2022-12-06T13:21:41.392Z,100094.63
2022-12-06T13:24:45.100Z,100093.25
2022-12-06T13:27:49.796Z,100089.59
2022-12-06T13:31:00.974Z,100092.28
2022-12-06T13:34:15.012Z,100101.66
2022-12-06T13:37:26.237Z,100098.81
2022-12-06T13:40:45.292Z,100104.50
2022-12-06T13:43:48.943Z,100103.69
2022-12-06T13:46:51.232Z,100092.63
2022-12-06T13:50:19.972Z,100105.84
2022-12-06T13:53:24.406Z,100097.41
2022-12-06T13:56:29.572Z,100101.72
2022-12-06T13:59:41.062Z,100101.06
2022-12-06T14:02:46.273Z,100103.91
2022-12-06T14:06:14.345Z,100099.81
2022-12-06T14:09:18.001Z,100100.28
2022-12-06T14:12:26.598Z,100099.50
2022-12-06T14:15:29.994Z,100102.59
2022-12-06T14:18:32.910Z,100096.88
2022-12-06T14:21:39.226Z,100102.78
2022-12-06T14:24:43.442Z,100105.50
2022-12-06T14:27:51.161Z,100093.66
2022-12-06T14:31:04.964Z,100101.97
2022-12-06T14:34:30.024Z,100107.88
2022-12-06T14:37:32.412Z,100111.16
2022-12-06T14:41:00.902Z,100113.88
2022-12-06T14:44:17.159Z,100100.97
2022-12-06T14:47:21.051Z,100112.41
2022-12-06T14:50:28.233Z,100121.59
2022-12-06T14:53:36.238Z,100108.16
2022-12-06T14:56:38.797Z,100114.28
2022-12-06T15:00:14.351Z,100118.56
2022-12-06T15:03:11.618Z,100116.13
2022-12-06T15:06:20.808Z,100112.63
2022-12-06T15:09:24.140Z,100124.47
2022-12-06T15:12:46.659Z,100112.44
2022-12-06T15:15:53.367Z,100123.28
2022-12-06T15:19:01.362Z,100120.81
2022-12-06T15:22:04.482Z,100111.06
2022-12-06T15:25:07.099Z,100123.47
2022-12-06T15:28:09.752Z,100113.47
2022-12-06T15:31:20.690Z,100126.72
2022-12-06T15:34:31.781Z,100123.66
2022-12-06T15:37:39.253Z,100115.50
2022-12-06T15:40:45.216Z,100119.34
2022-12-06T15:43:47.872Z,100118.97
2022-12-06T15:46:50.420Z,100129.78
2022-12-06T15:49:54.058Z,100131.41
2022-12-06T15:52:56.361Z,100132.50
2022-12-06T15:55:59.053Z,100131.94
2022-12-06T15:59:01.439Z,100148.03
2022-12-06T16:02:04.004Z,100149.44
2022-12-06T16:05:06.669Z,100145.19
2022-12-06T16:08:09.015Z,100141.94
2022-12-06T16:11:17.620Z,100141.34
2022-12-06T16:14:19.949Z,100134.59
2022-12-06T16:17:22.195Z,100135.56
2022-12-06T16:20:33.714Z,100136.38
2022-12-06T16:27:16.863Z,100139.94
2022-12-06T16:30:31.567Z,100137.31
2022-12-06T16:33:33.980Z,100136.13
2022-12-06T16:36:53.378Z,100135.88
2022-12-06T16:39:55.597Z,100144.66
2022-12-06T16:42:57.884Z,100146.34
2022-12-06T16:46:19.184Z,100153.50
2022-12-06T16:52:44.956Z,100144.16
2022-12-06T16:55:47.318Z,100136.84
2022-12-06T16:58:50.426Z,100153.41
2022-12-06T17:01:54.501Z,100124.41
2022-12-06T17:04:58.984Z,100129.94
2022-12-06T17:08:01.712Z,100140.13
2022-12-06T17:11:24.073Z,100137.88
2022-12-06T17:14:26.808Z,100142.78
2022-12-06T17:17:29.575Z,100133.00
2022-12-06T17:20:32.771Z,100135.09
2022-12-06T17:23:35.136Z,100141.84
2022-12-06T17:26:38.508Z,100156.59
2022-12-06T17:29:43.573Z,100164.94
2022-12-06T17:32:47.273Z,100130.63
2022-12-06T17:35:49.984Z,100154.75
2022-12-06T17:38:57.545Z,100151.44
2022-12-06T17:42:18.505Z,100155.06
2022-12-06T17:45:24.803Z,100131.59
2022-12-06T17:48:30.774Z,100121.25
2022-12-06T17:51:37.472Z,100139.16
2022-12-06T17:54:39.994Z,100123.81
2022-12-06T17:57:42.305Z,100149.03
2022-12-06T18:00:44.630Z,100147.94
2022-12-06T18:03:47.216Z,100162.31
2022-12-06T18:06:49.540Z,100141.09
2022-12-06T18:09:53.232Z,100141.97
2022-12-06T18:12:57.723Z,100156.09
2022-12-06T18:16:16.646Z,100123.69
2022-12-06T18:19:22.634Z,100126.34
2022-12-06T18:22:25.419Z,100154.53
2022-12-06T18:25:27.696Z,100151.16
2022-12-06T18:28:30.143Z,100150.94
2022-12-06T18:31:34.526Z,100123.69
2022-12-06T18:34:37.106Z,100121.88
2022-12-06T18:37:39.971Z,100147.31
2022-12-06T18:40:43.229Z,100127.78
2022-12-06T18:43:46.512Z,100141.63
2022-12-06T18:46:49.290Z,100135.03
2022-12-06T18:49:51.597Z,100134.06
2022-12-06T18:52:53.916Z,100134.44
2022-12-06T18:55:56.298Z,100137.75
2022-12-06T18:59:00.716Z,100144.69
2022-12-06T19:02:03.259Z,100147.53
2022-12-06T19:05:06.044Z,100122.88
2022-12-06T19:08:08.580Z,100141.03
2022-12-06T19:11:21.518Z,100120.34
2022-12-06T19:14:24.040Z,100128.66
2022-12-06T19:17:26.487Z,100136.88
2022-12-06T19:20:28.772Z,100130.84
2022-12-06T19:23:31.150Z,100128.06
2022-12-06T19:26:35.341Z,100150.31
2022-12-06T19:29:37.668Z,100146.81
2022-12-06T19:32:39.930Z,100144.03
2022-12-06T19:35:42.376Z,100125.88
2022-12-06T19:38:44.999Z,100141.78
2022-12-06T19:42:06.655Z,100130.84
2022-12-06T19:45:09.380Z,100149.69
2022-12-06T19:48:11.658Z,100149.19
2022-12-06T19:51:13.926Z,100141.16
2022-12-06T19:54:19.172Z,100153.22
2022-12-06T19:57:21.587Z,100149.94
2022-12-06T20:00:24.086Z,100142.38
2022-12-06T20:03:26.611Z,100140.28
2022-12-06T20:06:29.019Z,100126.31
2022-12-06T20:09:32.450Z,100159.97
2022-12-06T20:12:35.131Z,100139.53
2022-12-06T20:15:37.686Z,100143.81
2022-12-06T20:18:40.008Z,100148.13
2022-12-06T20:21:43.555Z,100160.41
2022-12-06T20:24:46.532Z,100146.16
2022-12-06T20:27:51.661Z,100138.38
2022-12-06T20:30:54.053Z,100114.69
2022-12-06T20:34:01.734Z,100136.31
2022-12-06T20:37:05.991Z,100101.94
2022-12-06T20:40:09.359Z,100138.63
2022-12-06T20:43:11.657Z,100140.72
2022-12-06T20:46:19.747Z,100139.31
2022-12-06T20:49:22.116Z,100135.22
2022-12-06T20:52:24.758Z,100119.28
2022-12-06T20:55:27.079Z,100120.44
2022-12-06T20:58:29.434Z,100127.75
2022-12-06T21:01:35.279Z,100131.97
2022-12-06T21:04:37.655Z,100134.28
2022-12-06T21:07:39.959Z,100141.53
2022-12-06T21:11:13.881Z,100135.50
2022-12-06T21:14:05.979Z,100146.53
2022-12-06T21:17:08.618Z,100147.31
2022-12-06T21:20:11.560Z,100149.47
2022-12-06T21:23:13.882Z,100143.50
2022-12-06T21:26:16.194Z,100120.88
2022-12-06T21:29:26.440Z,100168.69
2022-12-06T21:32:32.282Z,100168.44
2022-12-06T21:35:35.593Z,100160.06
2022-12-06T21:38:38.881Z,100156.59
2022-12-06T21:41:41.625Z,100142.13
2022-12-06T21:44:43.906Z,100160.50
2022-12-06T21:47:46.270Z,100159.38
2022-12-06T21:50:48.608Z,100164.19
2022-12-06T21:53:51.282Z,100172.53
2022-12-06T21:56:53.571Z,100143.84
2022-12-06T21:59:56.096Z,100143.84
2022-12-06T22:02:58.443Z,100155.38
2022-12-06T22:06:07.377Z,100153.16
2022-12-06T22:09:09.917Z,100149.44
2022-12-06T22:12:12.519Z,100145.31
2022-12-06T22:15:14.877Z,100150.56
2022-12-06T22:18:17.298Z,100154.47
2022-12-06T22:21:21.967Z,100161.56
2022-12-06T22:24:24.408Z,100156.41
2022-12-06T22:27:26.676Z,100147.00
2022-12-06T22:30:28.925Z,100151.22
2022-12-06T22:33:32.657Z,100150.88
2022-12-06T22:36:35.107Z,100158.25
2022-12-06T22:39:37.451Z,100127.78
2022-12-06T22:42:39.838Z,100130.81
2022-12-06T22:45:42.074Z,100134.53
2022-12-06T22:48:44.851Z,100122.59
2022-12-06T22:51:47.114Z,100111.28
2022-12-06T22:54:49.419Z,100113.88
2022-12-06T22:57:51.753Z,100132.25
2022-12-06T23:00:54.059Z,100132.59
2022-12-06T23:03:56.849Z,100130.59
2022-12-06T23:06:59.240Z,100121.84
2022-12-06T23:10:01.720Z,100116.84
2022-12-06T23:13:04.076Z,100122.00
2022-12-06T23:16:09.131Z,100129.16
2022-12-06T23:19:11.534Z,100106.31
2022-12-06T23:22:13.821Z,100111.81
2022-12-06T23:25:16.193Z,100119.34
2022-12-06T23:28:18.460Z,100122.16
2022-12-06T23:31:29.348Z,100112.03
2022-12-06T23:34:31.674Z,100099.91
2022-12-06T23:37:33.913Z,100086.53
2022-12-06T23:40:36.208Z,100085.59
2022-12-06T23:43:38.934Z,100041.41
2022-12-06T23:46:43.321Z,100078.41
2022-12-06T23:49:45.646Z,100071.88
2022-12-06T23:52:47.940Z,100110.53
2022-12-06T23:55:50.156Z,100097.88
2022-12-06T23:58:52.873Z,100106.78
